Edgar B Speer — WQZ9670 — position and weather

sailwx.info

Track history (hours):
 
Tides and Currents Weather Stations Pressure Air Temp Water Temp Dewpoint Dewpoint Depression Visibility Wind Speed Wind Dir Waves Ship Positions

Edgar B Speer

Owner: Great Lakes Fleet, Inc, DULUTH, MN. More information available from US FCC via Universal Licensing System and Coast Guard Vessel Documentation Center.

Last reported at 2016-Aug-28 02:25 UTC. Time now 2016-Aug-29 00:14 UTC.
Position N 45°54' W 083°60'.

Length 306 m; draft 7.3 m.

Type: Cargo ship. MMSI: 366971330.

Date/timePositionNaut miles runAvg speedWind from/ knotsBaromVisibWave heightAir tempDewpointWater temp
2016-Aug-28 02:25N 45°54' W 083°60'1113.1
2016-Aug-28 01:33N 45°51' W 084°16'1313.3
2016-Aug-28 00:33N 45°51' W 084°35'1212.2
2016-Aug-27 23:33N 45°49' W 084°52'1211.6
2016-Aug-27 22:34N 45°48' W 085°09'1212.0
2016-Aug-27 21:33N 45°38' W 085°17'1313.4
2016-Aug-27 20:33N 45°27' W 085°29'1413.6
2016-Aug-27 19:33N 45°16' W 085°40'1413.4
2016-Aug-27 18:32N 45°05' W 085°52'20 0.4
2016-Aug-25 14:33N 45°16' W 086°16'1212.4
2016-Aug-25 13:33N 45°28' W 086°12'1412.0
2016-Aug-25 12:24N 45°41' W 086°06'1012.0
2016-Aug-25 11:33N 45°46' W 085°53'1211.8
2016-Aug-25 10:33N 45°52' W 085°39'1111.3
2016-Aug-25 09:33N 45°53' W 085°23'1211.8
2016-Aug-25 08:33N 45°52' W 085°06'1211.8
2016-Aug-25 07:33N 45°50' W 084°49'10 9.9
2016-Aug-25 06:33N 45°51' W 084°35'2411.9
2016-Aug-25 04:33N 45°55' W 084°01'317 8.5
2016-Aug-23 15:09N 46°58' W 091°32'812.5
2016-Aug-23 14:33N 46°55' W 091°42'1312.6
2016-Aug-23 13:33N 46°49' W 091°58'6 6.4
2016-Aug-23 12:33N 46°46' W 092°06'2 1.7
2016-Aug-23 11:33N 46°45' W 092°08'0 0.2
2016-Aug-23 10:33N 46°45' W 092°08'0 0.0
2016-Aug-23 09:33N 46°45' W 092°08'0 0.0
2016-Aug-23 08:33N 46°45' W 092°08'0 0.0
2016-Aug-23 07:33N 46°45' W 092°08'0 0.0
2016-Aug-23 06:33N 46°45' W 092°08'0 0.1
2016-Aug-23 05:33N 46°45' W 092°08'1 0.8
2016-Aug-23 04:33N 46°45' W 092°07'1 1.5
2016-Aug-23 03:34N 46°46' W 092°06'3 3.3
2016-Aug-23 02:34N 46°48' W 092°02'1 0.8
2016-Aug-23 01:34N 46°47' W 092°02'0 0.0
2016-Aug-23 00:33N 46°47' W 092°02'0 0.0
2016-Aug-22 23:33N 46°47' W 092°02'0 0.0
2016-Aug-22 22:33N 46°47' W 092°02'0 0.0
2016-Aug-22 21:33N 46°47' W 092°02'0 0.0
2016-Aug-22 20:33N 46°47' W 092°02'1 0.5
2016-Aug-22 19:33N 46°47' W 092°03'6 5.7
2016-Aug-22 18:33N 46°50' W 091°55'9 9.1
2016-Aug-22 17:34N 46°53' W 091°43'8 7.9
2016-Aug-22 16:34N 47°01' W 091°40'0 0.0
2016-Aug-22 09:22N 47°01' W 091°40'1 0.2
2016-Aug-22 03:33N 46°60' W 091°41'6 5.6
2016-Aug-22 02:33N 46°54' W 091°44'320 7.6
2016-Aug-20 08:19N 45°51' W 084°09'1013.5
2016-Aug-20 07:33N 45°51' W 084°24'1313.1
2016-Aug-20 06:34N 45°49' W 084°42'1413.8
2016-Aug-20 05:33N 45°50' W 085°02'1010.1
2016-Aug-20 04:33N 45°42' W 085°12'1413.5
2016-Aug-20 03:33N 45°32' W 085°24'1413.6
2016-Aug-20 02:33N 45°21' W 085°35'1413.5
2016-Aug-20 01:33N 45°10' W 085°47'  
Track history (hours):
 
Tides and Currents Weather Stations Pressure Air Temp Water Temp Dewpoint Dewpoint Depression Visibility Wind Speed Wind Dir Waves Ship Positions

Edgar B Speer

Owner: Great Lakes Fleet, Inc, DULUTH, MN. More information available from US FCC via Universal Licensing System and Coast Guard Vessel Documentation Center.

Last reported at 2016-Aug-28 02:25 UTC. Time now 2016-Aug-29 00:14 UTC.
Position N 45°54' W 083°60'.

Length 306 m; draft 7.3 m.

Type: Cargo ship. MMSI: 366971330.

Date/timePositionNaut miles runAvg speedWind from/ knotsBaromVisibWave heightAir tempDewpointWater temp
2016-Aug-28 02:25N 45°54' W 083°60'1113.1
2016-Aug-28 01:33N 45°51' W 084°16'1313.3
2016-Aug-28 00:33N 45°51' W 084°35'1212.2
2016-Aug-27 23:33N 45°49' W 084°52'1211.6
2016-Aug-27 22:34N 45°48' W 085°09'1212.0
2016-Aug-27 21:33N 45°38' W 085°17'1313.4
2016-Aug-27 20:33N 45°27' W 085°29'1413.6
2016-Aug-27 19:33N 45°16' W 085°40'1413.4
2016-Aug-27 18:32N 45°05' W 085°52'20 0.4
2016-Aug-25 14:33N 45°16' W 086°16'1212.4
2016-Aug-25 13:33N 45°28' W 086°12'1412.0
2016-Aug-25 12:24N 45°41' W 086°06'1012.0
2016-Aug-25 11:33N 45°46' W 085°53'1211.8
2016-Aug-25 10:33N 45°52' W 085°39'1111.3
2016-Aug-25 09:33N 45°53' W 085°23'1211.8
2016-Aug-25 08:33N 45°52' W 085°06'1211.8
2016-Aug-25 07:33N 45°50' W 084°49'10 9.9
2016-Aug-25 06:33N 45°51' W 084°35'2411.9
2016-Aug-25 04:33N 45°55' W 084°01'317 8.5
2016-Aug-23 15:09N 46°58' W 091°32'812.5
2016-Aug-23 14:33N 46°55' W 091°42'1312.6
2016-Aug-23 13:33N 46°49' W 091°58'6 6.4
2016-Aug-23 12:33N 46°46' W 092°06'2 1.7
2016-Aug-23 11:33N 46°45' W 092°08'0 0.2
2016-Aug-23 10:33N 46°45' W 092°08'0 0.0
2016-Aug-23 09:33N 46°45' W 092°08'0 0.0
2016-Aug-23 08:33N 46°45' W 092°08'0 0.0
2016-Aug-23 07:33N 46°45' W 092°08'0 0.0
2016-Aug-23 06:33N 46°45' W 092°08'0 0.1
2016-Aug-23 05:33N 46°45' W 092°08'1 0.8
2016-Aug-23 04:33N 46°45' W 092°07'1 1.5
2016-Aug-23 03:34N 46°46' W 092°06'3 3.3
2016-Aug-23 02:34N 46°48' W 092°02'1 0.8
2016-Aug-23 01:34N 46°47' W 092°02'0 0.0
2016-Aug-23 00:33N 46°47' W 092°02'0 0.0
2016-Aug-22 23:33N 46°47' W 092°02'0 0.0
2016-Aug-22 22:33N 46°47' W 092°02'0 0.0
2016-Aug-22 21:33N 46°47' W 092°02'0 0.0
2016-Aug-22 20:33N 46°47' W 092°02'1 0.5
2016-Aug-22 19:33N 46°47' W 092°03'6 5.7
2016-Aug-22 18:33N 46°50' W 091°55'9 9.1
2016-Aug-22 17:34N 46°53' W 091°43'8 7.9
2016-Aug-22 16:34N 47°01' W 091°40'0 0.0
2016-Aug-22 09:22N 47°01' W 091°40'1 0.2
2016-Aug-22 03:33N 46°60' W 091°41'6 5.6
2016-Aug-22 02:33N 46°54' W 091°44'320 7.6
2016-Aug-20 08:19N 45°51' W 084°09'1013.5
2016-Aug-20 07:33N 45°51' W 084°24'1313.1
2016-Aug-20 06:34N 45°49' W 084°42'1413.8
2016-Aug-20 05:33N 45°50' W 085°02'1010.1
2016-Aug-20 04:33N 45°42' W 085°12'1413.5
2016-Aug-20 03:33N 45°32' W 085°24'1413.6
2016-Aug-20 02:33N 45°21' W 085°35'1413.5
2016-Aug-20 01:33N 45°10' W 085°47'  

Dump ship's entire track history